createdAt,value
2022-07-29T00:06:11.463Z,12.57
2022-07-29T00:16:13.004Z,12.57
2022-07-29T00:26:14.514Z,12.55
2022-07-29T00:36:15.993Z,12.46
2022-07-29T00:46:17.448Z,12.34
2022-07-29T00:56:19.726Z,12.22
2022-07-29T01:06:21.291Z,12.22
2022-07-29T01:16:29.663Z,12.15
2022-07-29T01:27:09.544Z,12.03
2022-07-29T01:37:13.909Z,11.98
2022-07-29T01:47:20.566Z,11.97
2022-07-29T01:57:27.018Z,11.96
2022-07-29T02:07:32.647Z,11.87
2022-07-29T02:17:42.891Z,11.95
2022-07-29T02:27:45.556Z,12.00
2022-07-29T02:37:48.089Z,12.04
2022-07-29T02:47:51.597Z,12.02
2022-07-29T02:58:00.791Z,11.97
2022-07-29T03:08:06.582Z,11.95
2022-07-29T03:18:08.534Z,11.99
2022-07-29T03:28:09.977Z,12.02
2022-07-29T03:38:11.520Z,12.01
2022-07-29T03:48:16.181Z,12.06
2022-07-29T03:58:19.956Z,12.07
2022-07-29T04:08:21.389Z,12.13
2022-07-29T04:18:22.846Z,12.16
2022-07-29T04:28:24.301Z,12.21
2022-07-29T04:38:25.745Z,12.33
2022-07-29T04:48:28.925Z,12.52
2022-07-29T04:58:30.488Z,12.76
2022-07-29T05:08:31.935Z,13.00
2022-07-29T05:18:33.378Z,13.36
2022-07-29T05:28:35.558Z,13.54
2022-07-29T05:38:37.495Z,13.43
2022-07-29T05:48:38.970Z,13.69
2022-07-29T05:58:40.493Z,14.10
2022-07-29T06:08:41.983Z,14.39
2022-07-29T06:18:43.430Z,15.08
2022-07-29T06:28:44.883Z,15.59
2022-07-29T06:38:51.428Z,15.62
2022-07-29T06:48:53.786Z,16.40
2022-07-29T06:58:55.258Z,16.80
2022-07-29T07:08:56.712Z,19.04
2022-07-29T07:18:58.131Z,20.31
2022-07-29T07:28:59.545Z,21.55
2022-07-29T07:39:01.014Z,19.17
2022-07-29T07:49:02.548Z,19.50
2022-07-29T07:59:04.056Z,18.97
2022-07-29T08:09:27.609Z,20.65
2022-07-29T08:19:27.281Z,19.82
2022-07-29T08:29:28.722Z,19.89
2022-07-29T08:39:30.113Z,20.14
2022-07-29T08:49:33.900Z,19.65
2022-07-29T08:59:36.084Z,19.80
2022-07-29T09:09:40.053Z,19.89
2022-07-29T09:19:45.435Z,19.96
2022-07-29T09:29:48.164Z,19.90
2022-07-29T09:39:50.844Z,19.93
2022-07-29T09:50:00.215Z,20.07
2022-07-29T10:00:07.103Z,20.20
2022-07-29T10:10:24.143Z,20.33
2022-07-29T10:20:31.623Z,20.78
2022-07-29T10:30:33.448Z,21.32
2022-07-29T10:40:58.700Z,22.08
2022-07-29T10:51:05.361Z,22.59
2022-07-29T11:01:37.247Z,22.91
2022-07-29T11:11:40.516Z,23.15
2022-07-29T11:22:05.454Z,23.34
2022-07-29T11:32:15.742Z,23.80
2022-07-29T11:42:28.282Z,23.44
2022-07-29T11:52:49.411Z,23.65
2022-07-29T12:02:52.008Z,24.03
2022-07-29T12:12:53.399Z,24.64
2022-07-29T12:22:55.752Z,24.57
2022-07-29T12:32:57.181Z,24.83
2022-07-29T12:43:13.651Z,25.12
2022-07-29T12:53:15.164Z,25.05
2022-07-29T13:03:19.661Z,24.79
2022-07-29T13:13:21.285Z,24.44
2022-07-29T13:23:22.771Z,24.73
2022-07-29T13:33:24.224Z,24.80
2022-07-29T13:43:25.653Z,24.01
2022-07-29T13:53:27.359Z,24.35
2022-07-29T14:03:28.977Z,24.73
2022-07-29T14:13:30.425Z,24.89
2022-07-29T14:23:33.647Z,24.88
2022-07-29T14:33:35.129Z,25.27
2022-07-29T14:43:36.545Z,24.93
2022-07-29T14:53:38.049Z,24.48
2022-07-29T15:03:39.516Z,24.13
2022-07-29T15:13:41.150Z,23.80
2022-07-29T15:23:42.574Z,23.87
2022-07-29T15:33:44.014Z,23.46
2022-07-29T15:43:45.930Z,22.87
2022-07-29T15:53:53.226Z,22.85
2022-07-29T16:03:55.367Z,22.62
2022-07-29T16:13:56.888Z,22.57
2022-07-29T16:24:00.077Z,22.47
2022-07-29T16:34:01.583Z,22.36
2022-07-29T16:44:03.026Z,22.11
2022-07-29T16:54:04.469Z,22.03
2022-07-29T17:04:05.917Z,22.05
2022-07-29T17:14:09.011Z,22.00
2022-07-29T17:24:10.632Z,21.87
2022-07-29T17:34:12.129Z,21.77
2022-07-29T17:44:13.937Z,21.51
2022-07-29T17:54:15.365Z,21.40
2022-07-29T18:04:16.816Z,21.23
2022-07-29T18:14:18.239Z,21.16
2022-07-29T18:24:19.648Z,20.97
2022-07-29T18:34:21.061Z,20.80
2022-07-29T18:44:22.847Z,20.46
2022-07-29T18:54:24.461Z,20.19
2022-07-29T19:04:26.766Z,19.88
2022-07-29T19:14:28.189Z,19.77
2022-07-29T19:24:29.646Z,19.71
2022-07-29T19:34:31.108Z,19.59
2022-07-29T19:44:32.566Z,19.54
2022-07-29T19:54:33.995Z,19.39
2022-07-29T20:04:35.412Z,19.33
2022-07-29T20:14:37.143Z,19.26
2022-07-29T20:24:38.549Z,19.16
2022-07-29T20:34:40.409Z,19.08
2022-07-29T20:44:41.930Z,19.06
2022-07-29T20:54:43.353Z,19.02
2022-07-29T21:04:44.811Z,18.88
2022-07-29T21:14:46.267Z,18.84
2022-07-29T21:24:47.954Z,18.89
2022-07-29T21:34:49.361Z,18.93
2022-07-29T21:44:50.904Z,18.93
2022-07-29T21:54:52.327Z,18.94
2022-07-29T22:04:53.788Z,18.76
2022-07-29T22:14:55.223Z,18.60
2022-07-29T22:24:57.509Z,18.58
2022-07-29T22:34:58.923Z,18.63
2022-07-29T22:45:00.418Z,18.38
2022-07-29T22:55:02.653Z,18.21
2022-07-29T23:05:04.730Z,18.12
2022-07-29T23:15:08.255Z,17.82
2022-07-29T23:25:09.863Z,17.85
2022-07-29T23:35:11.444Z,17.85
2022-07-29T23:45:13.933Z,17.84
2022-07-29T23:55:37.780Z,17.77
